createdAt,value
2022-09-07T06:26:14.365Z,4.77
2022-09-07T06:28:57.197Z,4.33
2022-09-07T06:31:34.886Z,4.03
2022-09-07T06:34:12.058Z,4.17
2022-09-07T06:36:48.929Z,4.60
2022-09-07T06:39:26.445Z,4.00
2022-09-07T06:42:06.350Z,4.00
2022-09-07T06:44:44.401Z,4.00
2022-09-07T06:47:21.048Z,4.07
2022-09-07T06:49:58.295Z,4.33
2022-09-07T06:55:32.756Z,3.73
2022-09-07T06:58:12.276Z,2.93
2022-09-07T07:00:50.519Z,3.20
2022-09-07T07:03:27.678Z,3.43
2022-09-07T07:06:05.088Z,3.30
2022-09-07T07:08:42.433Z,3.17
2022-09-07T07:11:20.206Z,3.43
2022-09-07T07:14:00.498Z,3.00
2022-09-07T07:16:39.398Z,3.13
2022-09-07T07:19:16.638Z,2.77
2022-09-07T07:24:52.227Z,2.77
2022-09-07T07:27:29.496Z,3.40
2022-09-07T07:30:10.727Z,2.97
2022-09-07T07:32:50.975Z,3.00
2022-09-07T07:35:28.366Z,3.13
2022-09-07T07:44:01.246Z,3.67
2022-09-07T07:46:41.654Z,3.93
2022-09-07T07:49:20.869Z,3.70
2022-09-07T07:54:55.434Z,4.00
2022-09-07T07:57:35.861Z,2.97
2022-09-07T08:00:23.639Z,3.83
2022-09-07T08:03:15.540Z,3.40
2022-09-07T08:05:52.711Z,3.50
2022-09-07T08:08:29.464Z,3.70
2022-09-07T08:11:08.782Z,4.00
2022-09-07T08:13:47.621Z,3.80
2022-09-07T08:16:24.756Z,3.90
2022-09-07T08:19:06.036Z,3.47
2022-09-07T08:21:43.106Z,3.23
2022-09-07T08:24:20.022Z,3.77
2022-09-07T08:26:57.385Z,3.60
2022-09-07T08:29:35.473Z,3.73
2022-09-07T08:32:12.822Z,4.07
2022-09-07T08:34:52.297Z,3.97
2022-09-07T08:37:29.454Z,4.00
2022-09-07T08:40:07.364Z,3.50
2022-09-07T08:43:01.138Z,3.77
2022-09-07T08:45:44.896Z,3.45
2022-09-07T08:48:27.089Z,4.20
2022-09-07T08:51:15.406Z,3.70
2022-09-07T08:53:53.405Z,3.67
2022-09-07T08:56:34.995Z,3.40
2022-09-07T08:59:23.633Z,3.42
2022-09-07T09:08:12.577Z,3.53
2022-09-07T09:11:03.542Z,3.65
2022-09-07T09:14:00.059Z,3.15
2022-09-07T09:16:46.084Z,2.70
2022-09-07T09:19:45.309Z,3.15
2022-09-07T09:22:26.980Z,2.83
2022-09-07T09:25:19.323Z,3.10
2022-09-07T09:27:56.444Z,2.53
2022-09-07T09:30:33.826Z,2.90
2022-09-07T09:33:21.345Z,3.00
2022-09-07T09:36:00.227Z,4.70
2022-09-07T09:38:40.115Z,2.47
2022-09-07T09:41:20.367Z,2.92
2022-09-07T09:43:59.586Z,3.45
2022-09-07T09:46:40.357Z,3.15
2022-09-07T09:49:23.488Z,2.95
2022-09-07T10:04:04.672Z,2.75
2022-09-07T10:06:54.670Z,2.28
2022-09-07T10:09:38.360Z,2.50
2022-09-07T10:12:32.575Z,2.22
2022-09-07T10:15:30.762Z,2.20
2022-09-07T10:18:10.241Z,2.10
2022-09-07T10:20:47.235Z,2.55
2022-09-07T10:23:27.312Z,2.40
2022-09-07T10:26:32.377Z,2.10
2022-09-07T10:29:19.571Z,2.58
2022-09-07T10:32:21.695Z,2.40
2022-09-07T10:35:17.496Z,2.90
2022-09-07T10:38:17.025Z,2.80
2022-09-07T10:41:04.507Z,2.65
2022-09-07T10:43:47.665Z,3.00
2022-09-07T10:46:59.084Z,2.53
2022-09-07T10:52:58.634Z,2.60
2022-09-07T10:55:39.209Z,2.95
2022-09-07T11:01:38.605Z,2.40
2022-09-07T11:05:01.436Z,2.65
2022-09-07T11:08:07.949Z,2.10
2022-09-07T11:10:51.571Z,3.40
2022-09-07T11:13:55.509Z,2.50
2022-09-07T11:16:53.150Z,2.97
2022-09-07T11:19:35.815Z,2.90
2022-09-07T11:22:35.460Z,2.75
2022-09-07T11:25:32.077Z,2.13
2022-09-07T11:28:20.894Z,3.90
2022-09-07T11:31:03.516Z,3.83
2022-09-07T11:37:06.184Z,3.58
2022-09-07T11:39:51.664Z,4.20
2022-09-07T11:42:44.133Z,3.22
2022-09-07T11:45:28.974Z,3.50
2022-09-07T11:48:19.352Z,2.58
2022-09-07T11:51:02.272Z,2.35
2022-09-07T11:53:43.110Z,1.80
2022-09-07T11:56:30.199Z,1.70
2022-09-07T11:59:33.636Z,1.50
2022-09-07T12:02:59.401Z,2.10
2022-09-07T12:06:01.820Z,1.90
2022-09-07T12:09:00.172Z,2.05
2022-09-07T12:12:09.081Z,2.33
2022-09-07T12:14:59.748Z,1.90
2022-09-07T12:17:58.329Z,2.00
2022-09-07T12:20:44.477Z,2.40
2022-09-07T12:23:33.291Z,2.17
2022-09-07T12:26:57.860Z,2.30
2022-09-07T12:29:35.969Z,1.90
2022-09-07T12:35:42.207Z,2.05
2022-09-07T12:39:09.517Z,1.83
2022-09-07T12:41:50.142Z,1.25
2022-09-07T12:44:30.277Z,1.65
2022-09-07T12:47:27.421Z,1.80
2022-09-07T12:50:30.843Z,1.02
2022-09-07T12:56:42.169Z,1.25
2022-09-07T12:59:45.111Z,1.33
2022-09-07T13:05:54.919Z,1.08
2022-09-07T13:09:12.613Z,0.80
2022-09-07T13:11:49.359Z,0.90
2022-09-07T13:14:31.590Z,1.52
2022-09-07T13:17:58.494Z,1.13
2022-09-07T13:20:39.822Z,1.60
2022-09-07T13:23:28.741Z,1.50
2022-09-07T13:26:09.007Z,1.52
2022-09-07T13:29:00.016Z,1.70
2022-09-07T13:31:58.031Z,1.63
2022-09-07T13:35:07.465Z,1.52
2022-09-07T13:37:54.308Z,1.08
2022-09-07T13:40:37.140Z,1.40
2022-09-07T13:43:22.687Z,1.40
2022-09-07T13:46:05.796Z,1.75
2022-09-07T13:48:50.829Z,1.55
2022-09-07T13:51:40.709Z,1.20
2022-09-07T13:54:27.785Z,1.13
2022-09-07T13:57:15.737Z,1.98
2022-09-07T13:59:55.655Z,1.80
2022-09-07T14:02:37.593Z,1.92
2022-09-07T14:05:21.334Z,1.65
2022-09-07T14:08:01.122Z,1.63
2022-09-07T14:10:38.298Z,1.20
2022-09-07T14:13:16.541Z,1.30
2022-09-07T14:15:54.393Z,0.98
2022-09-07T14:18:34.815Z,1.00
2022-09-07T14:21:20.639Z,1.45
2022-09-07T14:24:03.688Z,1.90
2022-09-07T14:26:48.202Z,1.70
2022-09-07T14:29:31.546Z,1.70
2022-09-07T14:32:20.619Z,1.48
2022-09-07T14:34:57.446Z,1.67
2022-09-07T14:37:34.582Z,2.10
2022-09-07T14:40:19.938Z,2.40
2022-09-07T14:42:58.627Z,2.72
2022-09-07T14:45:38.212Z,2.35
2022-09-07T14:48:17.362Z,2.65
2022-09-07T14:51:13.054Z,2.47
2022-09-07T14:53:53.722Z,2.53
2022-09-07T14:56:36.811Z,2.30
2022-09-07T14:59:39.514Z,1.70
2022-09-07T15:02:30.230Z,2.60
2022-09-07T15:05:33.112Z,3.10
2022-09-07T15:08:21.672Z,2.65
2022-09-07T15:14:14.859Z,2.72
2022-09-07T15:20:00.844Z,1.60
2022-09-07T15:22:38.061Z,1.13
2022-09-07T15:25:15.816Z,1.60
2022-09-07T15:27:53.017Z,2.50
2022-09-07T15:30:33.351Z,2.17
2022-09-07T15:33:11.476Z,1.92
2022-09-07T15:35:50.861Z,1.90
2022-09-07T15:41:27.486Z,1.80
2022-09-07T15:44:05.161Z,2.03
2022-09-07T15:47:42.467Z,1.65
2022-09-07T15:49:47.342Z,1.50
2022-09-07T15:52:26.131Z,1.00
2022-09-07T15:55:03.323Z,1.38
2022-09-07T15:58:10.641Z,1.00
2022-09-07T16:00:37.731Z,1.30
2022-09-07T16:03:18.510Z,1.50
2022-09-07T16:05:57.874Z,1.27
2022-09-07T16:08:34.648Z,1.30
2022-09-07T16:11:23.942Z,1.50
2022-09-07T16:14:03.854Z,1.45
2022-09-07T16:19:41.267Z,2.05
2022-09-07T16:25:15.530Z,1.38
2022-09-07T16:27:52.532Z,1.30
2022-09-07T16:30:31.039Z,1.80
2022-09-07T16:33:08.412Z,2.13
2022-09-07T16:35:59.617Z,2.00
2022-09-07T16:38:44.959Z,2.58
2022-09-07T16:41:35.201Z,2.83
2022-09-07T16:44:12.802Z,2.25
2022-09-07T16:46:50.563Z,2.50
2022-09-07T16:49:29.396Z,2.50
2022-09-07T16:52:11.046Z,3.42
2022-09-07T16:54:51.244Z,3.50
2022-09-07T16:58:35.153Z,3.33
2022-09-07T17:00:32.365Z,3.53
2022-09-07T17:03:11.791Z,3.72
2022-09-07T17:05:48.845Z,3.03
2022-09-07T17:08:28.799Z,2.80
2022-09-07T17:11:08.552Z,2.83
2022-09-07T17:13:47.426Z,3.00
2022-09-07T17:16:27.625Z,3.15
2022-09-07T17:22:03.404Z,2.65
2022-09-07T17:24:43.018Z,2.58
2022-09-07T17:27:21.427Z,2.40
2022-09-07T17:29:58.940Z,2.25
2022-09-07T17:32:37.197Z,1.98
2022-09-07T17:35:14.494Z,2.03
2022-09-07T17:37:52.416Z,2.20
2022-09-07T17:40:33.053Z,2.03
2022-09-07T17:46:09.225Z,1.90
2022-09-07T17:48:46.496Z,2.22
2022-09-07T17:51:23.666Z,2.08
2022-09-07T17:54:03.116Z,2.42
2022-09-07T17:56:43.356Z,2.22
2022-09-07T18:02:18.443Z,2.72
2022-09-07T18:04:55.879Z,2.75
2022-09-07T18:07:33.078Z,2.75
2022-09-07T18:10:12.074Z,2.63
2022-09-07T18:12:51.827Z,2.78
2022-09-07T18:15:29.311Z,3.00
2022-09-07T18:18:06.805Z,2.70
2022-09-07T18:20:45.924Z,2.78
2022-09-07T18:23:23.382Z,3.10
2022-09-07T18:26:01.457Z,3.13
2022-09-07T18:31:38.892Z,3.10
2022-09-07T18:34:20.648Z,2.70
2022-09-07T18:37:00.351Z,3.30
2022-09-07T18:39:37.635Z,3.13
2022-09-07T18:42:20.018Z,4.18
2022-09-07T18:48:03.967Z,4.95
2022-09-07T18:50:44.935Z,5.05
2022-09-07T18:53:25.477Z,4.80
2022-09-07T18:56:10.624Z,5.00
2022-09-07T18:58:53.065Z,4.78
2022-09-07T19:01:41.037Z,4.93
2022-09-07T19:04:23.535Z,5.07
2022-09-07T19:07:01.910Z,4.57
2022-09-07T19:09:39.750Z,4.25
2022-09-07T19:12:17.166Z,4.13
2022-09-07T19:14:54.735Z,3.83
2022-09-07T19:17:35.641Z,4.00
2022-09-07T19:20:14.365Z,4.47
2022-09-07T19:22:51.696Z,4.10
2022-09-07T19:25:31.884Z,5.40
2022-09-07T19:28:08.969Z,4.00
2022-09-07T19:30:47.333Z,4.03
